Time;durP1;ratioP1;P1;durP2;ratioP2;P2;SDS_P1;SDS_P2;PMS_P1;PMS_P2;Temp;Humidity;BMP_temperature;BMP_pressure;BME280_temperature;BME280_humidity;BME280_pressure;Samples;Min_cycle;Max_cycle;Signal;HPM_P1;HPM_P2
2023/10/31 00:02:14;;;;;;;8.00;7.20;;;;;;;11.41;100.00;99436.72;3601949;39;20314;-64
2023/10/31 00:04:40;;;;;;;8.52;6.47;;;;;;;11.37;100.00;99449.59;3602048;39;20056;-64
2023/10/31 00:07:05;;;;;;;7.70;5.90;;;;;;;11.34;100.00;99439.94;3598909;39;20055;-65
2023/10/31 00:09:31;;;;;;;6.95;5.18;;;;;;;11.34;100.00;99453.38;3600943;39;20047;-65
2023/10/31 00:11:58;;;;;;;8.20;5.53;;;;;;;11.34;100.00;99449.84;3600128;39;20083;-65
2023/10/31 00:14:24;;;;;;;7.00;5.20;;;;;;;11.36;100.00;99459.50;3601622;39;20291;-65
2023/10/31 00:16:49;;;;;;;9.23;5.82;;;;;;;11.34;100.00;99463.31;3600723;39;20058;-66
2023/10/31 00:19:15;;;;;;;7.93;5.38;;;;;;;11.33;100.00;99469.69;3601490;39;20054;-66
2023/10/31 00:21:41;;;;;;;9.77;5.40;;;;;;;10.98;100.00;99409.03;3601783;39;20059;-65
2023/10/31 00:24:07;;;;;;;6.72;5.60;;;;;;;11.32;100.00;99466.16;3600503;39;20051;-66
2023/10/31 00:26:33;;;;;;;8.77;4.70;;;;;;;11.31;100.00;99460.88;3600602;39;20083;-66
2023/10/31 00:28:58;;;;;;;5.95;4.30;;;;;;;11.33;99.71;99465.16;3601514;39;20054;-66
2023/10/31 00:31:24;;;;;;;4.72;3.90;;;;;;;11.32;99.99;99463.44;3601733;39;20339;-66
2023/10/31 00:33:49;;;;;;;8.90;4.35;;;;;;;11.31;99.92;99463.56;3600216;39;20059;-64
2023/10/31 00:36:15;;;;;;;4.93;3.78;;;;;;;10.81;100.00;99377.34;3599612;39;20056;-64
2023/10/31 00:38:41;;;;;;;4.13;3.13;;;;;;;11.17;100.00;99451.31;3600456;39;20055;-64
2023/10/31 00:41:10;;;;;;;4.68;3.28;;;;;;;10.86;99.94;99391.25;3600842;39;20085;-64
2023/10/31 00:43:35;;;;;;;6.80;3.30;;;;;;;10.99;100.00;99416.09;3601618;39;20501;-66
2023/10/31 00:46:04;;;;;;;4.88;2.80;;;;;;;11.38;100.00;99480.88;3599375;39;20051;-65
2023/10/31 00:48:29;;;;;;;5.15;2.88;;;;;;;11.36;99.92;99482.88;3602030;39;20660;-66
2023/10/31 00:50:55;;;;;;;7.43;3.00;;;;;;;11.38;99.88;99481.75;3601898;39;20043;-66
2023/10/31 00:53:20;;;;;;;7.05;3.10;;;;;;;11.43;99.96;99493.94;3599461;39;20062;-66
2023/10/31 00:55:46;;;;;;;4.60;2.60;;;;;;;11.46;99.61;99496.38;3600988;39;20050;-66
2023/10/31 00:58:12;;;;;;;6.05;3.20;;;;;;;11.46;99.40;99493.69;3602031;39;20075;-66
2023/10/31 01:00:37;;;;;;;4.03;3.00;;;;;;;11.39;99.88;99480.75;3601396;39;20298;-65
2023/10/31 01:03:03;;;;;;;4.93;3.70;;;;;;;11.37;99.38;99488.09;3599915;39;20096;-64
2023/10/31 01:05:29;;;;;;;8.50;4.32;;;;;;;11.29;99.74;99474.47;3599225;39;20322;-64
2023/10/31 01:07:55;;;;;;;6.97;4.80;;;;;;;11.39;100.00;99496.06;3592811;39;20058;-65
2023/10/31 01:10:21;;;;;;;10.05;6.30;;;;;;;11.44;100.00;99503.72;3601546;39;20104;-65
2023/10/31 01:12:47;;;;;;;9.77;6.82;;;;;;;10.96;100.00;99424.44;3600106;39;20082;-65
2023/10/31 01:15:12;;;;;;;12.98;8.45;;;;;;;11.44;100.00;99509.09;3601438;39;20051;-64
2023/10/31 01:17:38;;;;;;;13.25;10.27;;;;;;;10.87;99.79;99423.38;3599146;39;20054;-65
2023/10/31 01:20:07;;;;;;;15.48;11.20;;;;;;;11.41;100.00;99515.59;3600140;39;20398;-65
2023/10/31 01:22:33;;;;;;;15.52;11.77;;;;;;;11.45;100.00;99508.09;3598852;39;20059;-65
2023/10/31 01:24:58;;;;;;;15.00;12.02;;;;;;;11.47;100.00;99514.22;3590285;39;20105;-65
2023/10/31 01:27:24;;;;;;;18.83;13.98;;;;;;;11.46;100.00;99518.75;3599637;39;20399;-65
2023/10/31 01:29:50;;;;;;;20.00;14.25;;;;;;;11.43;100.00;99519.00;3601672;39;20058;-65
2023/10/31 01:32:15;;;;;;;23.17;17.33;;;;;;;11.46;100.00;99520.59;3600735;39;20062;-65
2023/10/31 01:34:41;;;;;;;20.83;17.75;;;;;;;11.42;100.00;99516.44;3599064;39;20051;-65
2023/10/31 01:37:06;;;;;;;23.85;18.67;;;;;;;11.47;100.00;99522.28;3591129;39;20311;-66
2023/10/31 01:39:32;;;;;;;25.80;20.13;;;;;;;11.48;100.00;99521.28;3600515;39;20409;-66
2023/10/31 01:41:58;;;;;;;25.10;19.98;;;;;;;11.41;100.00;99510.22;3601722;39;20054;-65
2023/10/31 01:44:23;;;;;;;26.65;20.88;;;;;;;11.47;100.00;99524.97;3599972;39;20059;-65
2023/10/31 01:46:49;;;;;;;27.40;22.02;;;;;;;11.46;100.00;99518.75;3601641;39;20054;-66
2023/10/31 01:49:16;;;;;;;28.98;21.95;;;;;;;11.46;100.00;99510.66;3595825;39;20362;-65
2023/10/31 01:51:42;;;;;;;26.35;22.77;;;;;;;11.43;100.00;99502.88;3598694;39;20078;-65
2023/10/31 01:54:10;;;;;;;29.08;23.55;;;;;;;11.44;100.00;99517.16;3598698;39;20050;-65
2023/10/31 01:56:37;;;;;;;27.38;23.30;;;;;;;11.49;100.00;99520.31;3600122;39;20064;-64
2023/10/31 01:59:05;;;;;;;28.77;23.35;;;;;;;11.43;100.00;99508.25;3600336;39;20109;-65
2023/10/31 02:01:35;;;;;;;27.70;23.27;;;;;;;11.05;100.00;99445.16;3599619;39;20125;-64
2023/10/31 02:04:02;;;;;;;31.88;24.90;;;;;;;11.49;100.00;99523.88;3601136;39;20050;-64
2023/10/31 02:06:30;;;;;;;28.67;24.40;;;;;;;11.50;100.00;99520.19;3600366;39;20051;-64
2023/10/31 02:08:56;;;;;;;28.23;23.35;;;;;;;11.50;100.00;99535.47;3599941;39;20290;-64
2023/10/31 02:11:22;;;;;;;29.40;23.23;;;;;;;11.47;100.00;99535.75;3601023;39;20634;-64
2023/10/31 02:13:47;;;;;;;33.80;24.23;;;;;;;11.49;100.00;99531.09;3599298;39;20063;-64
2023/10/31 02:16:13;;;;;;;27.35;22.05;;;;;;;11.42;100.00;99521.81;3599173;39;20091;-64
2023/10/31 02:18:39;;;;;;;29.13;22.33;;;;;;;11.48;100.00;99523.97;3598987;39;20056;-64
2023/10/31 02:21:05;;;;;;;29.52;22.67;;;;;;;11.49;100.00;99517.63;3600366;39;20342;-64
2023/10/31 02:23:30;;;;;;;27.92;22.90;;;;;;;11.52;100.00;99523.59;3593109;39;20059;-64
2023/10/31 02:25:57;;;;;;;29.92;22.13;;;;;;;11.54;100.00;99526.13;3599704;39;20064;-64
2023/10/31 02:28:27;;;;;;;27.45;22.05;;;;;;;11.55;100.00;99522.50;3598733;39;20062;-64
2023/10/31 02:30:54;;;;;;;28.00;23.30;;;;;;;11.57;100.00;99515.13;3600248;39;20370;-65
2023/10/31 02:33:20;;;;;;;29.15;22.90;;;;;;;11.56;100.00;99519.66;3601301;39;21152;-64
2023/10/31 02:35:46;;;;;;;26.80;23.23;;;;;;;11.59;100.00;99529.28;3599368;39;20055;-64
2023/10/31 02:38:12;;;;;;;31.08;23.58;;;;;;;11.61;100.00;99527.34;3598273;39;20063;-64
2023/10/31 02:40:37;;;;;;;29.65;24.10;;;;;;;11.08;100.00;99438.66;3599998;39;20090;-64
2023/10/31 02:43:03;;;;;;;30.20;24.17;;;;;;;11.28;100.00;99477.28;3600631;39;20060;-65
2023/10/31 02:45:29;;;;;;;34.45;23.85;;;;;;;11.62;100.00;99540.66;3598837;39;20048;-66
2023/10/31 02:47:55;;;;;;;32.25;24.92;;;;;;;11.10;100.00;99458.19;3601283;39;20059;-64
2023/10/31 02:50:21;;;;;;;31.83;24.92;;;;;;;11.60;100.00;99544.44;3590584;39;20074;-64
2023/10/31 02:52:46;;;;;;;31.95;25.17;;;;;;;11.18;100.00;99471.00;3600619;39;20052;-66
2023/10/31 02:55:12;;;;;;;29.58;25.52;;;;;;;11.58;100.00;99541.06;3599813;39;20074;-66
2023/10/31 02:57:38;;;;;;;29.35;24.42;;;;;;;11.58;100.00;99541.91;3602190;39;20416;-66
2023/10/31 03:00:04;;;;;;;27.75;22.23;;;;;;;11.56;100.00;99546.56;3602142;39;20063;-67
2023/10/31 03:02:30;;;;;;;28.42;23.92;;;;;;;11.57;100.00;99547.41;3602402;39;20044;-65
2023/10/31 03:04:56;;;;;;;30.15;23.67;;;;;;;11.00;100.00;99459.97;3600626;39;20104;-65
2023/10/31 03:07:21;;;;;;;28.65;24.30;;;;;;;11.55;100.00;99554.78;3598102;39;20066;-64
2023/10/31 03:09:47;;;;;;;29.50;24.50;;;;;;;11.54;100.00;99553.06;3601384;39;20056;-64
2023/10/31 03:12:12;;;;;;;26.92;23.65;;;;;;;11.54;100.00;99558.44;3601243;39;20136;-64
2023/10/31 03:14:38;;;;;;;29.48;23.98;;;;;;;11.54;100.00;99564.66;3602781;39;20054;-65
2023/10/31 03:17:04;;;;;;;28.10;23.45;;;;;;;11.54;100.00;99570.06;3602356;39;20067;-64
2023/10/31 03:19:29;;;;;;;33.63;24.95;;;;;;;11.54;100.00;99566.50;3598269;39;20430;-65
2023/10/31 03:21:55;;;;;;;27.65;24.15;;;;;;;11.51;100.00;99567.66;3599667;39;20047;-64
2023/10/31 03:24:20;;;;;;;30.67;24.45;;;;;;;11.56;100.00;99588.78;3599819;39;20068;-65
2023/10/31 03:26:46;;;;;;;32.42;26.40;;;;;;;11.54;100.00;99582.66;3599089;39;20055;-63
2023/10/31 03:29:12;;;;;;;29.92;25.67;;;;;;;11.00;100.00;99495.78;3599477;39;20055;-64
2023/10/31 03:31:37;;;;;;;29.80;26.60;;;;;;;11.57;100.00;99591.31;3602158;39;20374;-64
2023/10/31 03:34:03;;;;;;;31.00;26.25;;;;;;;11.56;100.00;99600.38;3595352;39;20054;-64
2023/10/31 03:36:28;;;;;;;32.17;26.70;;;;;;;11.55;100.00;99592.47;3600843;39;20059;-65
2023/10/31 03:38:54;;;;;;;31.50;25.75;;;;;;;11.59;100.00;99599.28;3600582;39;20059;-64
2023/10/31 03:41:19;;;;;;;32.28;27.17;;;;;;;11.58;100.00;99602.97;3594075;39;20058;-64
2023/10/31 03:43:45;;;;;;;32.10;27.58;;;;;;;11.58;100.00;99602.97;3602274;39;20298;-64
2023/10/31 03:46:12;;;;;;;34.25;28.17;;;;;;;11.59;100.00;99605.50;3602652;39;20166;-64
2023/10/31 03:48:37;;;;;;;31.73;27.00;;;;;;;11.59;100.00;99605.50;3601506;39;20055;-64
2023/10/31 03:51:03;;;;;;;32.10;28.63;;;;;;;11.63;100.00;99611.47;3594239;39;20062;-63
2023/10/31 03:53:29;;;;;;;32.85;28.42;;;;;;;11.63;100.00;99623.09;3601417;39;20452;-66
2023/10/31 03:55:54;;;;;;;31.35;26.52;;;;;;;11.62;99.94;99618.72;3602873;39;20374;-64
2023/10/31 03:58:20;;;;;;;33.05;28.48;;;;;;;11.63;99.95;99623.09;3602559;39;20323;-65
2023/10/31 04:00:46;;;;;;;29.80;26.65;;;;;;;11.63;99.95;99628.47;3594658;39;20051;-64
2023/10/31 04:03:11;;;;;;;33.80;28.63;;;;;;;11.64;100.00;99634.75;3597803;39;20048;-64
2023/10/31 04:05:37;;;;;;;31.33;27.10;;;;;;;11.65;99.90;99625.66;3600091;39;20117;-66
2023/10/31 04:08:03;;;;;;;29.38;26.00;;;;;;;11.65;100.00;99633.75;3600496;39;20051;-66
2023/10/31 04:10:28;;;;;;;31.27;25.30;;;;;;;11.65;99.76;99632.91;3601266;39;20096;-66
2023/10/31 04:12:54;;;;;;;28.70;24.77;;;;;;;11.54;100.00;99618.50;3602143;39;20066;-66
2023/10/31 04:15:20;;;;;;;30.73;26.17;;;;;;;11.63;100.00;99635.69;3602483;39;20071;-64
2023/10/31 04:17:45;;;;;;;26.98;24.17;;;;;;;11.65;100.00;99635.59;3600377;39;20062;-64
2023/10/31 04:20:11;;;;;;;29.25;24.63;;;;;;;11.14;99.63;99562.72;3600185;39;20176;-64
2023/10/31 04:22:37;;;;;;;27.27;23.88;;;;;;;11.10;99.57;99563.06;3600393;39;20063;-64
2023/10/31 04:25:04;;;;;;;29.33;23.33;;;;;;;11.56;99.84;99643.44;3599940;39;20059;-65
2023/10/31 04:27:30;;;;;;;24.92;22.25;;;;;;;11.58;99.53;99656.78;3595437;39;20059;-64
2023/10/31 04:29:55;;;;;;;25.05;22.15;;;;;;;11.58;99.76;99662.19;3602198;39;20057;-64
2023/10/31 04:32:21;;;;;;;24.48;21.20;;;;;;;11.58;99.55;99662.19;3601816;39;20256;-64
2023/10/31 04:34:47;;;;;;;25.67;22.02;;;;;;;11.57;99.72;99666.69;3601987;39;20300;-64
2023/10/31 04:37:12;;;;;;;24.58;21.77;;;;;;;11.43;100.00;99648.16;3601254;39;20048;-66
2023/10/31 04:39:38;;;;;;;23.85;21.23;;;;;;;11.09;99.89;99594.50;3598650;39;20071;-66
2023/10/31 04:42:04;;;;;;;24.52;21.85;;;;;;;11.58;100.00;99673.78;3599825;39;20055;-65
2023/10/31 04:44:29;;;;;;;22.80;20.38;;;;;;;11.59;99.94;99686.25;3599458;39;20360;-65
2023/10/31 04:46:55;;;;;;;24.35;20.92;;;;;;;11.59;99.91;99680.88;3600011;39;20052;-66
2023/10/31 04:49:20;;;;;;;23.30;20.85;;;;;;;11.58;100.00;99697.16;3592288;39;20070;-65
2023/10/31 04:51:46;;;;;;;21.92;19.55;;;;;;;11.55;99.97;99700.97;3602325;39;20092;-65
2023/10/31 04:54:11;;;;;;;23.17;19.95;;;;;;;11.51;100.00;99694.13;3592288;39;20054;-66
2023/10/31 04:56:37;;;;;;;21.20;18.05;;;;;;;11.50;100.00;99695.09;3597130;39;20148;-65
2023/10/31 04:59:03;;;;;;;22.00;18.98;;;;;;;11.48;100.00;99698.91;3598527;39;20062;-65
2023/10/31 05:01:29;;;;;;;23.75;20.00;;;;;;;11.46;100.00;99695.50;3597363;39;20055;-65
2023/10/31 05:03:54;;;;;;;22.58;20.17;;;;;;;11.50;100.00;99700.47;3600234;39;20063;-65
2023/10/31 05:06:22;;;;;;;24.05;20.15;;;;;;;11.50;100.00;99708.56;3602953;39;20090;-66
2023/10/31 05:08:48;;;;;;;23.67;21.13;;;;;;;11.51;100.00;99715.66;3605641;39;20051;-66
2023/10/31 05:11:17;;;;;;;24.95;22.25;;;;;;;11.54;100.00;99720.75;3599892;39;20057;-66
2023/10/31 05:13:44;;;;;;;23.92;21.42;;;;;;;11.50;100.00;99703.19;3595248;39;20310;-65
2023/10/31 05:16:10;;;;;;;24.42;21.83;;;;;;;10.85;100.00;99592.03;3597047;39;20053;-66
2023/10/31 05:18:37;;;;;;;25.60;22.58;;;;;;;11.50;100.00;99702.31;3597209;39;20421;-66
2023/10/31 05:21:03;;;;;;;25.10;22.23;;;;;;;11.46;100.00;99695.50;3592994;39;20423;-66
2023/10/31 05:23:29;;;;;;;24.98;22.27;;;;;;;10.97;100.00;99624.25;3594064;39;20047;-66
2023/10/31 05:25:55;;;;;;;25.67;22.98;;;;;;;11.46;100.00;99704.44;3602655;39;20047;-66
2023/10/31 05:28:21;;;;;;;25.77;22.33;;;;;;;11.43;100.00;99695.75;3603185;39;20051;-65
2023/10/31 05:30:47;;;;;;;25.30;22.65;;;;;;;11.42;100.00;99699.41;3606504;39;20123;-66
2023/10/31 05:33:15;;;;;;;24.50;21.60;;;;;;;10.74;100.00;99592.06;3599180;39;20058;-66
2023/10/31 05:35:41;;;;;;;24.33;21.73;;;;;;;11.36;100.00;99698.97;3596718;39;20059;-66
2023/10/31 05:38:07;;;;;;;25.05;22.35;;;;;;;11.35;100.00;99705.31;3603520;39;20098;-66
2023/10/31 05:40:35;;;;;;;24.70;22.10;;;;;;;11.34;100.00;99702.75;3596583;39;20314;-66
2023/10/31 05:43:02;;;;;;;25.50;22.80;;;;;;;11.32;100.00;99704.69;3599785;39;20044;-67
2023/10/31 05:45:28;;;;;;;24.13;21.52;;;;;;;10.90;100.00;99640.88;3600690;39;20054;-67
2023/10/31 05:47:53;;;;;;;23.33;20.95;;;;;;;10.77;100.00;99633.97;3603765;39;20047;-65
2023/10/31 05:50:19;;;;;;;23.58;21.17;;;;;;;11.32;100.00;99729.78;3600029;39;20059;-67
2023/10/31 05:52:44;;;;;;;23.95;21.38;;;;;;;11.32;100.00;99728.91;3600596;39;20048;-66
2023/10/31 05:55:10;;;;;;;23.85;21.30;;;;;;;10.83;100.00;99655.81;3596569;39;20055;-65
2023/10/31 05:57:36;;;;;;;23.20;20.75;;;;;;;11.30;100.00;99739.81;3599328;39;20063;-66
2023/10/31 06:00:02;;;;;;;22.77;20.48;;;;;;;11.18;100.00;99723.84;3604837;39;20386;-65
2023/10/31 06:02:28;;;;;;;21.92;19.58;;;;;;;11.21;100.00;99734.34;3601164;39;20054;-65
2023/10/31 06:04:54;;;;;;;21.10;18.95;;;;;;;10.87;100.00;99692.22;3593573;39;20074;-66
2023/10/31 06:07:20;;;;;;;20.60;18.40;;;;;;;11.06;100.00;99725.69;3603497;39;20068;-66
2023/10/31 06:09:45;;;;;;;20.30;18.20;;;;;;;11.18;100.00;99756.09;3603907;39;20321;-67
2023/10/31 06:12:11;;;;;;;19.92;17.90;;;;;;;11.14;100.00;99755.50;3596362;39;20098;-67
2023/10/31 06:14:37;;;;;;;22.23;19.95;;;;;;;11.11;100.00;99756.59;3598513;39;20098;-67
2023/10/31 06:17:06;;;;;;;21.27;19.02;;;;;;;11.07;100.00;99765.06;3600002;39;20127;-67
2023/10/31 06:19:36;;;;;;;21.45;19.27;;;;;;;10.96;100.00;99757.00;3601570;39;20044;-66
2023/10/31 06:22:02;;;;;;;20.92;18.73;;;;;;;10.99;100.00;99768.34;3596827;39;20059;-67
2023/10/31 06:24:27;;;;;;;21.08;18.88;;;;;;;10.97;100.00;99769.44;3599646;39;20051;-67
2023/10/31 06:26:53;;;;;;;20.70;18.63;;;;;;;10.93;100.00;99775.06;3602929;39;20048;-68
2023/10/31 06:29:18;;;;;;;21.23;19.02;;;;;;;10.93;100.00;99774.22;3604363;39;20512;-67
2023/10/31 06:31:44;;;;;;;22.23;19.92;;;;;;;10.47;100.00;99707.19;3601999;39;20378;-67
2023/10/31 06:34:10;;;;;;;21.45;19.42;;;;;;;10.09;100.00;99649.25;3597660;39;20051;-66
2023/10/31 06:36:35;;;;;;;21.75;19.50;;;;;;;10.94;100.00;99789.38;3595470;39;20055;-66
2023/10/31 06:39:02;;;;;;;21.60;19.40;;;;;;;10.39;100.00;99689.81;3603159;39;20058;-66
2023/10/31 06:41:27;;;;;;;20.85;18.75;;;;;;;10.44;100.00;99698.38;3597909;39;20040;-64
2023/10/31 08:08:39;;;;;;;27.25;24.10;;;;;;;9.41;100.00;99858.28;3617269;39;20182;-69
2023/10/31 08:11:10;;;;;;;27.90;24.90;;;;;;;9.78;100.00;99866.34;3619224;39;20100;-69
2023/10/31 08:13:39;;;;;;;28.65;25.80;;;;;;;9.91;100.00;99824.19;3613896;39;20050;-69
2023/10/31 08:16:06;;;;;;;30.75;25.42;;;;;;;10.38;100.00;99846.59;3614229;39;20043;-69
2023/10/31 08:18:32;;;;;;;28.67;25.77;;;;;;;10.76;100.00;99866.97;3613645;39;20126;-70
2023/10/31 08:20:57;;;;;;;27.92;25.13;;;;;;;10.96;100.00;99870.78;3611629;39;20040;-69
2023/10/31 08:23:25;;;;;;;25.60;21.70;;;;;;;11.15;100.00;99871.03;3613467;39;20051;-69
2023/10/31 08:25:51;;;;;;;26.67;23.10;;;;;;;11.28;100.00;99873.59;3613939;39;20316;-69
2023/10/31 08:28:17;;;;;;;26.90;23.75;;;;;;;11.44;100.00;99875.06;3613271;39;20051;-69
2023/10/31 08:30:43;;;;;;;26.02;23.23;;;;;;;11.51;100.00;99874.47;3611826;39;20116;-69
2023/10/31 08:33:08;;;;;;;25.80;22.35;;;;;;;11.57;100.00;99875.78;3604849;39;20175;-69
2023/10/31 08:35:34;;;;;;;27.65;22.17;;;;;;;11.65;100.00;99883.25;3613969;39;20062;-69
2023/10/31 08:38:00;;;;;;;23.73;21.25;;;;;;;11.46;100.00;99844.34;3613356;39;20055;-68
2023/10/31 08:40:26;;;;;;;24.85;21.85;;;;;;;11.71;100.00;99875.50;3611940;39;20066;-70
2023/10/31 08:42:52;;;;;;;22.52;20.08;;;;;;;11.76;100.00;99891.28;3604648;39;20095;-70
2023/10/31 08:45:17;;;;;;;24.85;21.13;;;;;;;11.84;99.95;99892.41;3613967;39;20066;-69
2023/10/31 08:47:43;;;;;;;25.30;20.27;;;;;;;11.90;99.32;99893.75;3614213;39;20055;-69
2023/10/31 08:50:09;;;;;;;21.73;19.38;;;;;;;11.91;98.40;99897.28;3614449;39;20446;-69
2023/10/31 08:52:35;;;;;;;22.23;19.55;;;;;;;11.87;97.89;99904.78;3613197;39;20343;-69
2023/10/31 08:55:00;;;;;;;21.77;18.88;;;;;;;11.90;98.61;99915.28;3612015;39;20043;-69
2023/10/31 08:57:26;;;;;;;21.67;19.42;;;;;;;11.98;98.85;99911.94;3602718;39;20107;-69
2023/10/31 08:59:51;;;;;;;21.65;18.40;;;;;;;12.03;98.49;99921.38;3613066;39;20065;-69
2023/10/31 09:02:17;;;;;;;20.83;18.48;;;;;;;12.03;97.94;99925.91;3614792;39;20387;-70
2023/10/31 09:04:43;;;;;;;20.48;16.83;;;;;;;12.08;97.37;99929.06;3614672;39;20080;-70
2023/10/31 09:07:08;;;;;;;20.42;18.30;;;;;;;12.04;97.01;99919.53;3617080;39;20066;-70
2023/10/31 09:09:34;;;;;;;19.98;17.42;;;;;;;12.11;96.45;99938.72;3613881;39;20055;-70
2023/10/31 09:11:59;;;;;;;19.52;15.82;;;;;;;12.10;95.51;99939.72;3617372;39;20073;-70
2023/10/31 09:14:25;;;;;;;20.13;17.90;;;;;;;12.04;95.69;99938.38;3613568;39;20059;-70
2023/10/31 09:16:51;;;;;;;20.88;16.88;;;;;;;12.05;95.94;99951.75;3614773;39;20055;-70
2023/10/31 09:19:16;;;;;;;22.23;17.25;;;;;;;12.05;95.33;99949.06;3610300;39;20081;-70
2023/10/31 09:21:42;;;;;;;21.27;16.88;;;;;;;12.06;96.03;99952.59;3604539;39;20064;-69
2023/10/31 09:24:08;;;;;;;19.63;16.77;;;;;;;12.04;96.26;99963.47;3606689;39;20047;-69
2023/10/31 09:26:34;;;;;;;19.55;16.95;;;;;;;11.93;95.80;99939.28;3604639;39;20049;-70
2023/10/31 09:28:59;;;;;;;22.02;16.50;;;;;;;12.04;95.53;99963.47;3605328;39;20051;-69
2023/10/31 09:31:25;;;;;;;19.75;17.58;;;;;;;12.07;95.69;99971.31;3605773;39;20062;-69
2023/10/31 09:33:51;;;;;;;17.92;16.02;;;;;;;12.11;95.59;99977.31;3599386;39;20047;-69
2023/10/31 09:36:16;;;;;;;19.23;15.35;;;;;;;12.16;96.20;99983.19;3604372;39;20039;-67
2023/10/31 09:38:42;;;;;;;19.48;17.00;;;;;;;12.16;95.69;99980.50;3605625;39;20058;-68
2023/10/31 09:41:08;;;;;;;19.67;16.73;;;;;;;12.25;95.51;99997.75;3607081;39;20158;-67
2023/10/31 09:43:34;;;;;;;18.70;15.75;;;;;;;12.23;94.44;100003.25;3604417;39;20124;-68
2023/10/31 09:46:03;;;;;;;19.05;15.95;;;;;;;11.93;94.33;99949.19;3605311;39;20055;-70
2023/10/31 09:48:29;;;;;;;20.05;16.58;;;;;;;12.18;95.19;100008.16;3607171;39;20056;-68
2023/10/31 09:50:56;;;;;;;17.60;15.80;;;;;;;12.23;95.16;100003.25;3605959;39;20437;-68
2023/10/31 09:53:23;;;;;;;16.98;15.13;;;;;;;12.29;95.04;100000.03;3605837;39;20051;-68
2023/10/31 09:55:53;;;;;;;18.40;15.68;;;;;;;12.26;93.89;100003.00;3606412;39;20094;-67
2023/10/31 09:58:19;;;;;;;16.13;14.50;;;;;;;12.28;93.74;99998.34;3605634;39;20074;-68
2023/10/31 10:00:44;;;;;;;16.45;14.75;;;;;;;12.33;94.37;99997.94;3604410;39;20401;-68
2023/10/31 10:03:10;;;;;;;15.93;13.77;;;;;;;12.42;94.22;100005.28;3606592;39;20062;-68
2023/10/31 10:05:36;;;;;;;16.15;13.75;;;;;;;12.35;93.58;99978.97;3603942;39;20051;-68
2023/10/31 10:08:04;;;;;;;14.82;13.32;;;;;;;12.66;93.96;99991.59;3597722;39;20366;-68
2023/10/31 10:10:31;;;;;;;15.82;14.10;;;;;;;12.93;90.42;100012.69;3604537;39;20088;-68
2023/10/31 10:12:58;;;;;;;15.52;13.82;;;;;;;12.98;89.85;100017.69;3606732;39;20040;-68
2023/10/31 10:15:24;;;;;;;14.15;12.63;;;;;;;12.98;89.21;100032.03;3607256;39;20047;-68
2023/10/31 10:17:51;;;;;;;14.85;13.35;;;;;;;12.94;89.59;100032.41;3608282;39;20067;-68
2023/10/31 10:20:19;;;;;;;14.90;13.32;;;;;;;12.89;89.09;100038.22;3608537;39;20687;-68
2023/10/31 10:22:45;;;;;;;14.85;13.35;;;;;;;12.81;88.76;100040.69;3604390;39;20152;-68
2023/10/31 10:25:18;;;;;;;15.23;12.73;;;;;;;12.75;90.30;100047.47;3605979;39;20067;-68
2023/10/31 10:27:45;;;;;;;15.32;13.02;;;;;;;12.77;90.77;100041.94;3604036;39;20039;-69
2023/10/31 10:30:14;;;;;;;15.82;12.52;;;;;;;12.77;90.72;100047.31;3597023;39;20051;-69
2023/10/31 10:32:39;;;;;;;13.23;11.93;;;;;;;12.69;91.07;100031.81;3604892;39;20051;-69
2023/10/31 10:35:07;;;;;;;14.75;12.73;;;;;;;12.80;90.78;100046.22;3604179;39;20058;-69
2023/10/31 10:37:39;;;;;;;13.90;11.98;;;;;;;12.81;90.57;100056.00;3603742;39;20063;-69
2023/10/31 10:40:07;;;;;;;16.13;12.48;;;;;;;12.77;90.84;100050.88;3605126;39;20051;-69
2023/10/31 10:42:47;;;;;;;15.70;12.60;;;;;;;12.89;90.25;100069.72;3598539;39;20282;-68
2023/10/31 10:45:16;;;;;;;14.23;12.35;;;;;;;12.96;90.36;100068.22;3604127;39;20092;-66
2023/10/31 10:47:47;;;;;;;14.75;13.07;;;;;;;12.94;90.71;100070.19;3604654;39;20055;-69
2023/10/31 10:50:15;;;;;;;16.42;12.98;;;;;;;12.76;89.53;100043.78;3606315;39;20055;-68
2023/10/31 10:53:08;;;;;;;15.18;12.70;;;;;;;12.95;89.92;100074.63;3605958;39;20494;-69
2023/10/31 10:55:44;;;;;;;16.30;13.13;;;;;;;12.97;89.76;100083.41;3607652;39;20051;-68
2023/10/31 10:58:35;;;;;;;15.32;12.25;;;;;;;12.97;89.03;100084.31;3606298;39;20407;-69
2023/10/31 11:01:02;;;;;;;15.63;13.00;;;;;;;12.92;88.41;100082.97;3607187;39;20056;-68
2023/10/31 11:03:31;;;;;;;14.45;12.88;;;;;;;12.86;88.54;100080.78;3604149;39;20054;-68
2023/10/31 11:05:57;;;;;;;14.57;12.98;;;;;;;12.86;88.97;100083.47;3605277;39;20710;-69
2023/10/31 11:08:25;;;;;;;14.40;12.88;;;;;;;12.79;88.67;100075.03;3605600;39;20330;-68
2023/10/31 11:10:53;;;;;;;15.45;12.93;;;;;;;12.71;88.55;100078.34;3606485;39;20124;-68
2023/10/31 11:13:19;;;;;;;14.93;13.25;;;;;;;12.68;89.62;100067.81;3604146;39;20084;-68
2023/10/31 11:15:51;;;;;;;14.27;12.57;;;;;;;12.71;90.49;100075.66;3606294;39;20048;-68
2023/10/31 11:18:18;;;;;;;18.35;12.57;;;;;;;12.77;90.00;100072.44;3605505;39;20063;-69
2023/10/31 11:20:44;;;;;;;13.60;12.25;;;;;;;12.82;90.45;100084.72;3604257;39;20058;-68
2023/10/31 11:23:10;;;;;;;13.98;11.95;;;;;;;12.83;89.91;100089.13;3594094;39;20386;-68
2023/10/31 11:25:43;;;;;;;13.88;12.10;;;;;;;12.84;90.02;100082.72;3603623;39;20047;-69
2023/10/31 11:28:13;;;;;;;;;;;;;;;12.92;90.13;100085.66;3606667;39;20062;-67
2023/10/31 11:30:42;;;;;;;12.80;11.23;;;;;;;12.95;90.29;100080.00;3595876;39;20173;-69
2023/10/31 11:33:13;;;;;;;15.63;12.38;;;;;;;12.97;89.94;100083.41;3606085;39;20284;-69
2023/10/31 11:35:41;;;;;;;14.77;12.07;;;;;;;12.99;89.85;100089.53;3603279;39;20054;-68
2023/10/31 11:38:11;;;;;;;12.93;10.48;;;;;;;13.07;89.46;100088.94;3608234;39;20083;-68
2023/10/31 11:40:59;;;;;;;13.95;11.43;;;;;;;13.22;89.20;100079.50;3605283;39;20091;-69
2023/10/31 11:43:25;;;;;;;10.43;9.30;;;;;;;13.50;87.82;100079.88;3605442;39;20062;-66
2023/10/31 11:45:52;;;;;;;11.57;9.27;;;;;;;13.36;86.37;100046.00;3605204;39;20063;-68
2023/10/31 11:48:50;;;;;;;10.50;9.40;;;;;;;13.57;86.77;100065.72;3603113;39;20469;-69
2023/10/31 11:51:15;;;;;;;12.65;9.27;;;;;;;13.90;85.70;100078.13;3594598;39;20075;-68
2023/10/31 11:53:43;;;;;;;9.85;8.70;;;;;;;14.15;84.98;100078.69;3606411;39;20057;-70
2023/10/31 11:56:13;;;;;;;10.77;8.80;;;;;;;14.25;84.04;100074.16;3607245;39;20376;-69
2023/10/31 11:58:39;;;;;;;8.43;7.65;;;;;;;14.31;83.26;100068.22;3603751;39;20148;-66
2023/10/31 12:01:08;;;;;;;7.97;6.38;;;;;;;14.50;80.92;100075.53;3603693;39;20051;-66
2023/10/31 12:03:47;;;;;;;7.32;6.25;;;;;;;14.43;79.79;100076.19;3605729;39;20050;-69
2023/10/31 12:06:14;;;;;;;7.65;6.57;;;;;;;14.38;80.17;100085.59;3606175;39;20051;-69
2023/10/31 12:08:43;;;;;;;6.78;6.00;;;;;;;14.47;80.56;100074.94;3605223;39;20046;-67
2023/10/31 12:11:22;;;;;;;7.07;5.10;;;;;;;14.49;77.38;100037.78;3603767;39;20076;-67
2023/10/31 12:14:06;;;;;;;7.22;4.65;;;;;;;14.89;76.57;100078.31;3603314;39;20128;-66
2023/10/31 12:16:34;;;;;;;4.95;4.18;;;;;;;14.94;75.17;100081.47;3603283;39;20035;-67
2023/10/31 12:19:04;;;;;;;6.32;4.60;;;;;;;15.05;76.90;100078.59;3603339;39;20070;-68
2023/10/31 12:21:49;;;;;;;5.05;3.97;;;;;;;15.22;76.46;100078.88;3608326;39;20051;-68
2023/10/31 12:24:18;;;;;;;9.27;3.70;;;;;;;15.17;74.38;100079.34;3605986;39;20371;-67
2023/10/31 12:26:45;;;;;;;5.43;3.75;;;;;;;15.15;75.13;100088.59;3604822;39;20125;-68
2023/10/31 12:29:15;;;;;;;3.83;3.13;;;;;;;15.11;75.08;100090.72;3603509;39;20187;-67
2023/10/31 12:31:54;;;;;;;3.47;3.17;;;;;;;14.91;75.21;100080.91;3607462;39;20055;-67
2023/10/31 12:34:22;;;;;;;8.07;5.07;;;;;;;14.78;75.57;100094.66;3604699;39;20091;-67
2023/10/31 12:36:52;;;;;;;7.07;3.50;;;;;;;14.70;75.34;100091.81;3605084;39;20290;-68
2023/10/31 12:39:26;;;;;;;5.82;3.30;;;;;;;14.60;75.33;100105.31;3604645;39;20063;-67